Time;durP1;ratioP1;P1;durP2;ratioP2;P2;SDS_P1;SDS_P2;PMS_P1;PMS_P2;Temp;Humidity;BMP_temperature;BMP_pressure;BME280_temperature;BME280_humidity;BME280_pressure;Samples;Min_cycle;Max_cycle;Signal;HPM_P1;HPM_P2
2021/08/24 00:00:51;;;;;;;16.52;9.78;;;;;;;13.55;82.60;101216.35;1861606;77;20960;-81
2021/08/24 00:03:18;;;;;;;17.75;10.53;;;;;;;13.52;82.47;101217.88;1861287;77;20924;-80
2021/08/24 00:05:46;;;;;;;18.87;9.10;;;;;;;13.48;82.46;101222.48;1861726;77;20912;-79
2021/08/24 00:08:13;;;;;;;12.68;8.50;;;;;;;13.44;82.74;101209.12;1861800;77;21095;-80
2021/08/24 00:10:49;;;;;;;14.95;9.48;;;;;;;13.42;83.09;101217.59;1861457;77;20866;-79
2021/08/24 00:13:16;;;;;;;;;;;;;;;13.39;83.34;101216.47;1864336;77;20908;-79
2021/08/24 00:15:43;;;;;;;17.17;8.83;;;;;;;13.37;83.57;101212.25;1861777;77;20515;-85
2021/08/24 00:18:11;;;;;;;12.95;8.38;;;;;;;13.35;83.79;101212.33;1861576;77;20983;-85
2021/08/24 00:20:39;;;;;;;16.37;7.75;;;;;;;13.33;84.01;101219.48;1861617;77;21130;-85
2021/08/24 00:23:09;;;;;;;14.13;8.50;;;;;;;13.33;84.05;101216.01;1861317;77;20956;-82
2021/08/24 00:25:36;;;;;;;12.73;7.97;;;;;;;13.30;84.04;101222.80;1861981;77;21315;-80
2021/08/24 00:28:03;;;;;;;15.98;8.98;;;;;;;13.27;83.95;101223.33;1861635;77;20909;-80
2021/08/24 00:30:30;;;;;;;21.55;9.40;;;;;;;13.24;83.96;101216.91;1862130;77;21311;-81
2021/08/24 00:32:57;;;;;;;12.18;7.83;;;;;;;13.21;84.13;101218.42;1861593;77;21926;-79
2021/08/24 00:35:24;;;;;;;11.50;8.28;;;;;;;13.19;84.34;101209.77;1861750;77;20862;-80
2021/08/24 00:37:52;;;;;;;9.63;7.72;;;;;;;13.17;84.46;101210.34;1861494;77;20878;-79
2021/08/24 00:40:18;;;;;;;14.50;7.83;;;;;;;13.14;84.59;101208.34;1861620;77;20865;-78
2021/08/24 00:42:45;;;;;;;15.88;8.80;;;;;;;13.14;84.78;101209.66;1861983;77;21394;-79
2021/08/24 00:45:14;;;;;;;15.28;9.50;;;;;;;13.13;84.83;101202.72;1861915;77;21112;-79
2021/08/24 00:47:42;;;;;;;16.45;9.15;;;;;;;13.13;84.90;101206.67;1861655;77;20917;-78
2021/08/24 00:50:29;;;;;;;16.97;9.50;;;;;;;13.13;84.85;101206.67;1861577;77;20968;-77
2021/08/24 00:53:09;;;;;;;13.68;9.05;;;;;;;13.11;84.74;101208.06;1861690;77;20877;-78
2021/08/24 00:55:38;;;;;;;15.72;9.35;;;;;;;13.10;84.69;101205.55;1861765;77;20857;-78
2021/08/24 00:58:07;;;;;;;14.58;9.40;;;;;;;13.08;84.82;101203.00;1835835;77;21066;-78
2021/08/24 01:00:35;;;;;;;18.92;9.55;;;;;;;13.06;84.79;101205.72;1861361;77;20913;-79
2021/08/24 01:03:08;;;;;;;17.95;9.78;;;;;;;13.06;84.70;101199.61;1861777;77;20909;-78
2021/08/24 01:05:40;;;;;;;16.62;9.90;;;;;;;13.05;84.74;101203.20;1861634;77;20881;-78
2021/08/24 01:08:53;;;;;;;13.83;9.10;;;;;;;13.02;84.68;101201.58;1861968;77;21370;-79
2021/08/24 01:11:31;;;;;;;15.38;9.10;;;;;;;13.00;84.72;101200.82;1862617;77;21550;-79
2021/08/24 01:14:10;;;;;;;17.55;9.28;;;;;;;13.00;84.90;101202.61;1861755;77;21465;-80
2021/08/24 01:16:57;;;;;;;14.15;8.80;;;;;;;13.01;84.99;101199.06;1861476;77;20905;-80
2021/08/24 01:19:41;;;;;;;15.38;9.85;;;;;;;13.01;84.98;101195.11;1861388;77;20873;-78
2021/08/24 01:22:42;;;;;;;12.43;8.63;;;;;;;13.01;84.89;101190.68;1861545;77;20893;-78
2021/08/24 01:25:15;;;;;;;17.15;10.35;;;;;;;12.99;84.70;101193.88;1861824;77;22122;-82
2021/08/24 01:28:20;;;;;;;13.97;9.40;;;;;;;12.95;84.65;101202.89;1860980;77;20897;-81
2021/08/24 01:31:30;;;;;;;13.80;9.10;;;;;;;12.92;84.71;101196.98;1862093;77;21397;-81
2021/08/24 01:34:19;;;;;;;16.02;9.85;;;;;;;12.88;84.87;101198.11;1861515;77;21288;-80
2021/08/24 01:36:52;;;;;;;17.02;10.35;;;;;;;12.82;85.19;101194.05;1861884;77;20873;-81
2021/08/24 01:39:44;;;;;;;17.23;9.78;;;;;;;12.81;85.46;101197.62;1862163;77;21175;-80
2021/08/24 01:42:23;;;;;;;15.15;9.25;;;;;;;12.79;85.62;101206.09;1859316;76;21008;-81
2021/08/24 01:45:01;;;;;;;15.48;9.40;;;;;;;12.75;85.56;101198.83;1858241;77;21081;-79
2021/08/24 01:47:48;;;;;;;15.25;9.45;;;;;;;12.71;85.38;101205.21;1858554;76;21474;-79
2021/08/24 01:50:38;;;;;;;13.88;9.28;;;;;;;12.68;85.20;101208.03;1858274;77;20881;-79
2021/08/24 01:53:26;;;;;;;15.45;8.95;;;;;;;12.63;85.16;101209.63;1858514;77;21495;-79
2021/08/24 01:55:57;;;;;;;15.28;9.48;;;;;;;12.59;85.22;101214.69;1858070;77;21446;-78
2021/08/24 01:58:44;;;;;;;15.58;9.48;;;;;;;12.54;85.24;101210.62;1858583;76;20915;-79
2021/08/24 02:01:14;;;;;;;19.17;10.13;;;;;;;12.51;85.26;101219.55;1858564;77;20901;-81
2021/08/24 02:03:45;;;;;;;20.05;10.08;;;;;;;12.47;85.53;101229.02;1858589;76;21409;-80
2021/08/24 02:06:29;;;;;;;20.82;12.63;;;;;;;12.45;85.75;101219.92;1858298;77;21126;-77
2021/08/24 02:08:58;;;;;;;19.55;12.93;;;;;;;12.43;85.96;101220.00;1858352;77;21334;-78
2021/08/24 02:11:26;;;;;;;23.85;13.83;;;;;;;12.41;86.04;101215.77;1858324;77;20904;-78
2021/08/24 02:13:53;;;;;;;25.00;14.00;;;;;;;12.40;86.11;101218.01;1858612;77;20956;-78
2021/08/24 02:16:24;;;;;;;22.82;13.32;;;;;;;12.38;86.09;101212.86;1858302;76;21465;-78
2021/08/24 02:19:09;;;;;;;17.75;11.60;;;;;;;12.38;86.16;101208.91;1858652;77;21103;-77
2021/08/24 02:21:56;;;;;;;21.15;11.85;;;;;;;12.40;86.22;101204.86;1857823;77;20866;-78
2021/08/24 02:24:31;;;;;;;22.75;13.83;;;;;;;12.40;86.09;101199.12;1858465;77;20925;-81
2021/08/24 02:26:58;;;;;;;21.12;13.05;;;;;;;12.42;86.12;101197.25;1858333;77;20913;-80
2021/08/24 02:29:25;;;;;;;26.25;12.75;;;;;;;12.44;86.14;101203.74;1858372;76;21308;-80
2021/08/24 02:32:11;;;;;;;20.57;11.83;;;;;;;12.46;86.05;101204.50;1858413;77;22153;-79
2021/08/24 02:35:00;;;;;;;20.80;12.82;;;;;;;12.47;85.86;101202.23;1858856;77;20869;-80
2021/08/24 02:37:43;;;;;;;31.62;18.87;;;;;;;12.50;85.88;101199.92;1857640;77;20920;-79
2021/08/24 02:40:44;;;;;;;42.15;25.25;;;;;;;12.53;85.84;101203.20;1858497;77;20948;-80
2021/08/24 02:43:34;;;;;;;40.30;24.43;;;;;;;12.55;85.69;101204.44;1845708;77;20967;-80
2021/08/24 02:46:27;;;;;;;35.80;24.60;;;;;;;12.54;85.36;101205.36;1848547;77;21090;-80
2021/08/24 02:49:01;;;;;;;39.08;24.57;;;;;;;12.50;84.94;101199.92;1860893;77;20814;-79
2021/08/24 02:51:28;;;;;;;42.62;27.73;;;;;;;12.45;84.84;101208.09;1835780;77;20874;-79
2021/08/24 02:54:18;;;;;;;37.03;26.15;;;;;;;12.41;85.00;101207.41;1861243;77;21011;-80
2021/08/24 02:56:45;;;;;;;45.75;27.27;;;;;;;12.38;85.23;101211.55;1861567;77;20948;-78
2021/08/24 02:59:12;;;;;;;40.17;25.85;;;;;;;12.35;85.77;101207.75;1861475;77;21454;-79
2021/08/24 03:01:40;;;;;;;46.18;27.48;;;;;;;12.34;86.06;101208.70;1861354;77;20980;-77
2021/08/24 03:04:07;;;;;;;33.88;22.40;;;;;;;12.33;86.05;101212.25;1861466;77;20905;-79
2021/08/24 03:06:40;;;;;;;35.23;18.90;;;;;;;12.31;86.02;101211.97;1861752;77;20862;-78
2021/08/24 03:09:06;;;;;;;27.20;16.25;;;;;;;12.28;85.91;101209.53;1861549;77;20896;-78
2021/08/24 03:11:40;;;;;;;23.47;14.70;;;;;;;12.26;85.96;101209.61;1861536;77;21054;-78
2021/08/24 03:14:23;;;;;;;28.00;15.40;;;;;;;12.25;86.15;101211.88;1861315;77;20909;-76
2021/08/24 03:16:53;;;;;;;20.15;14.58;;;;;;;12.27;86.29;101213.08;1861676;77;20956;-79
2021/08/24 03:19:25;;;;;;;22.15;13.35;;;;;;;12.29;86.30;101207.27;1861271;77;20980;-79
2021/08/24 03:21:51;;;;;;;21.25;14.28;;;;;;;12.29;86.19;101199.37;1861735;77;20967;-80
2021/08/24 03:24:18;;;;;;;23.07;13.88;;;;;;;12.31;86.23;101198.34;1835549;77;22089;-80
2021/08/24 03:26:46;;;;;;;26.52;15.68;;;;;;;12.31;86.21;101198.34;1836064;77;20909;-79
2021/08/24 03:29:19;;;;;;;21.65;15.00;;;;;;;12.34;86.18;101207.84;1861690;77;20956;-78
2021/08/24 03:31:51;;;;;;;23.95;14.28;;;;;;;12.35;86.22;101204.28;1861750;77;20866;-79
2021/08/24 03:34:18;;;;;;;23.12;13.53;;;;;;;12.36;86.31;101208.16;1861380;77;20869;-78
2021/08/24 03:36:46;;;;;;;18.55;14.13;;;;;;;12.39;86.54;101207.13;1861356;77;21064;-79
2021/08/24 03:39:13;;;;;;;22.07;13.65;;;;;;;12.43;86.68;101202.91;1861248;77;20959;-78
2021/08/24 03:41:40;;;;;;;30.57;15.38;;;;;;;12.47;86.60;101210.61;1860837;77;20990;-78
2021/08/24 03:44:07;;;;;;;27.15;14.30;;;;;;;12.49;86.63;101211.37;1857994;77;20838;-79
2021/08/24 03:46:34;;;;;;;27.52;15.83;;;;;;;12.53;86.67;101215.04;1858278;76;20941;-79
2021/08/24 03:49:01;;;;;;;22.37;15.23;;;;;;;12.57;86.72;101215.72;1858015;77;22008;-79
2021/08/24 03:51:29;;;;;;;29.10;19.50;;;;;;;12.61;86.88;101213.29;1857939;77;20893;-80
2021/08/24 03:53:55;;;;;;;30.55;16.97;;;;;;;12.69;86.82;101211.51;1858009;76;20960;-80
2021/08/24 03:56:22;;;;;;;28.38;14.75;;;;;;;12.73;86.63;101213.86;1858122;77;20886;-78
2021/08/24 03:58:49;;;;;;;25.45;14.63;;;;;;;12.78;86.49;101221.04;1858083;77;21434;-77
2021/08/24 04:01:18;;;;;;;24.32;15.00;;;;;;;12.81;86.58;101215.58;1857873;77;21114;-78
2021/08/24 04:03:45;;;;;;;23.75;14.07;;;;;;;12.89;86.70;101215.10;1857875;77;20909;-78
2021/08/24 04:06:12;;;;;;;20.32;13.05;;;;;;;12.95;86.78;101214.74;1858124;77;21445;-79
2021/08/24 04:08:41;;;;;;;18.20;11.93;;;;;;;13.02;86.79;101211.27;1857904;76;20897;-78
2021/08/24 04:11:08;;;;;;;23.22;12.55;;;;;;;13.11;86.83;101210.70;1827421;77;20869;-77
2021/08/24 04:13:35;;;;;;;19.37;12.78;;;;;;;13.21;86.71;101212.32;1858082;76;21796;-78
2021/08/24 04:16:10;;;;;;;25.48;12.10;;;;;;;13.30;86.65;101209.63;1858093;77;20936;-79
2021/08/24 04:18:37;;;;;;;;;;;;;;;13.38;86.50;101211.29;1860280;77;20838;-80
2021/08/24 04:21:09;;;;;;;14.25;10.78;;;;;;;13.45;86.47;101200.29;1858116;77;20091;-79
2021/08/24 04:23:36;;;;;;;18.73;11.85;;;;;;;13.56;86.24;101210.61;1858543;77;20882;-78
2021/08/24 04:26:04;;;;;;;13.13;10.72;;;;;;;13.65;86.18;101213.53;1858073;77;21560;-78
2021/08/24 04:28:31;;;;;;;19.70;11.60;;;;;;;13.77;86.22;101208.41;1858425;77;20962;-78
2021/08/24 04:30:58;;;;;;;16.82;12.43;;;;;;;13.88;86.01;101208.09;1858074;77;20884;-78
2021/08/24 04:33:25;;;;;;;13.28;11.05;;;;;;;14.00;85.64;101212.19;1858440;76;20877;-79
2021/08/24 04:35:54;;;;;;;14.93;11.10;;;;;;;14.10;85.45;101204.91;1858168;77;21469;-79
2021/08/24 04:38:21;;;;;;;19.90;11.57;;;;;;;14.27;85.28;101206.89;1858428;77;21479;-78
2021/08/24 04:40:47;;;;;;;18.52;10.25;;;;;;;14.48;85.20;101209.92;1858101;76;20858;-78
2021/08/24 04:43:15;;;;;;;21.07;11.63;;;;;;;14.67;84.62;101212.17;1858086;77;21374;-78
2021/08/24 04:45:44;;;;;;;29.15;12.53;;;;;;;14.84;84.02;101203.95;1858346;77;20964;-78
2021/08/24 04:48:11;;;;;;;17.85;10.30;;;;;;;15.10;83.74;101215.38;1857837;77;20952;-77
2021/08/24 04:50:37;;;;;;;19.57;11.05;;;;;;;15.42;82.98;101210.09;1858168;76;21531;-78
2021/08/24 04:53:06;;;;;;;11.68;10.43;;;;;;;15.75;82.25;101210.35;1858105;76;20865;-78
2021/08/24 04:56:43;;;;;;;20.90;10.08;;;;;;;16.24;80.75;101210.36;1816612;79;22697;-78
2021/08/24 04:59:11;;;;;;;11.43;9.25;;;;;;;16.49;80.14;101214.16;1789577;80;21519;-77
2021/08/24 05:01:37;;;;;;;10.13;8.48;;;;;;;16.92;79.05;101218.89;1789330;80;21510;-78
2021/08/24 05:04:05;;;;;;;12.30;8.45;;;;;;;17.49;77.94;101214.91;1789277;80;20868;-78
2021/08/24 05:06:32;;;;;;;13.40;8.38;;;;;;;18.18;76.07;101217.30;1789420;80;20896;-77
2021/08/24 05:08:58;;;;;;;11.85;7.97;;;;;;;18.93;73.76;101214.98;1789449;80;20896;-77
2021/08/24 05:11:25;;;;;;;8.40;6.75;;;;;;;19.68;71.18;101211.06;1789543;80;20939;-77
2021/08/24 05:13:52;;;;;;;13.62;6.67;;;;;;;20.44;68.49;101213.10;1789478;80;21072;-78
2021/08/24 05:16:20;;;;;;;9.85;6.33;;;;;;;21.15;66.33;101207.01;1789332;80;20896;-78
2021/08/24 05:18:47;;;;;;;9.50;6.60;;;;;;;21.79;64.36;101206.60;1789455;80;21325;-77
2021/08/24 05:21:14;;;;;;;10.43;6.08;;;;;;;22.39;62.20;101204.68;1789522;80;20935;-77
2021/08/24 05:23:41;;;;;;;10.05;7.35;;;;;;;22.92;60.44;101202.37;1789846;80;21018;-78
2021/08/24 05:26:11;;;;;;;8.15;6.45;;;;;;;23.45;58.65;101199.97;1789269;80;21960;-76
2021/08/24 05:28:40;;;;;;;11.05;6.65;;;;;;;23.94;57.13;101200.62;1789348;80;20967;-77
2021/08/24 05:31:06;;;;;;;16.95;7.35;;;;;;;24.42;55.32;101193.61;1789317;80;20931;-77
2021/08/24 05:33:34;;;;;;;14.23;7.37;;;;;;;24.85;53.89;101190.20;1789490;80;21366;-78
2021/08/24 05:36:01;;;;;;;12.60;6.55;;;;;;;25.36;52.52;101192.57;1789321;80;20916;-78
2021/08/24 05:38:29;;;;;;;12.13;6.92;;;;;;;25.80;51.10;101191.48;1789440;80;21967;-77
2021/08/24 05:40:59;;;;;;;11.63;6.55;;;;;;;26.25;50.39;101191.67;1789260;80;21405;-76
2021/08/24 05:43:26;;;;;;;9.68;5.92;;;;;;;26.66;49.55;101198.06;1789703;80;21026;-78
2021/08/24 05:46:01;;;;;;;7.85;4.97;;;;;;;27.04;47.86;101194.78;1789343;80;21525;-80
2021/08/24 05:48:28;;;;;;;9.20;5.47;;;;;;;27.43;46.90;101198.19;1788943;80;20892;-79
2021/08/24 05:50:55;;;;;;;11.53;6.25;;;;;;;27.81;45.55;101198.81;1789648;80;21094;-79
2021/08/24 05:53:22;;;;;;;6.60;4.83;;;;;;;28.15;44.60;101198.67;1789397;80;20978;-78
2021/08/24 05:55:49;;;;;;;9.20;4.50;;;;;;;28.51;42.54;101197.75;1786459;79;20939;-78
2021/08/24 05:58:16;;;;;;;7.50;4.55;;;;;;;28.87;40.75;101196.21;1783999;80;20861;-79
2021/08/24 06:00:45;;;;;;;6.87;4.15;;;;;;;29.14;39.27;101193.69;1784333;80;21421;-79
2021/08/24 06:03:12;;;;;;;7.58;4.12;;;;;;;29.40;38.53;101194.31;1784381;80;21196;-79
2021/08/24 06:05:41;;;;;;;5.72;4.15;;;;;;;29.66;37.10;101187.31;1784039;80;21465;-78
2021/08/24 06:08:07;;;;;;;7.03;4.28;;;;;;;29.94;37.07;101192.08;1783638;80;20853;-79
2021/08/24 06:10:38;;;;;;;9.83;4.25;;;;;;;30.21;35.92;101193.97;1783653;80;20924;-79
2021/08/24 06:13:06;;;;;;;7.62;4.00;;;;;;;30.45;35.81;101193.90;1783687;80;20915;-79
2021/08/24 06:15:34;;;;;;;9.75;3.75;;;;;;;30.71;35.62;101197.09;1783375;80;21775;-78
2021/08/24 06:18:01;;;;;;;7.12;4.70;;;;;;;30.93;35.19;101201.77;1783418;80;20983;-79
2021/08/24 06:20:28;;;;;;;11.78;5.45;;;;;;;31.19;34.20;101197.61;1783452;80;20872;-79
2021/08/24 06:22:55;;;;;;;6.95;4.40;;;;;;;31.42;32.87;101204.95;1783735;80;20995;-79
2021/08/24 06:25:22;;;;;;;8.58;4.60;;;;;;;31.66;31.99;101209.62;1783540;80;20948;-79
2021/08/24 06:27:50;;;;;;;5.40;4.62;;;;;;;31.86;30.67;101199.14;1783520;80;21595;-78
2021/08/24 06:30:18;;;;;;;7.75;4.15;;;;;;;32.04;30.12;101195.20;1783430;80;21511;-78
2021/08/24 06:32:51;;;;;;;10.28;4.17;;;;;;;32.25;29.14;101201.30;1783513;80;20860;-79
2021/08/24 06:35:21;;;;;;;8.68;4.50;;;;;;;32.45;29.18;101206.02;1783467;80;20912;-78
2021/08/24 06:37:49;;;;;;;9.23;4.60;;;;;;;32.70;29.03;101203.28;1783567;80;20885;-80
2021/08/24 06:40:17;;;;;;;11.10;4.25;;;;;;;32.95;29.53;101209.19;1781935;80;21856;-79
2021/08/24 06:42:49;;;;;;;7.80;4.28;;;;;;;33.19;29.04;101207.48;1783628;80;20967;-78
2021/08/24 06:45:23;;;;;;;11.55;4.90;;;;;;;33.42;28.90;101208.14;1783650;80;20848;-79
2021/08/24 06:47:51;;;;;;;10.18;3.37;;;;;;;33.65;28.21;101210.97;1783084;80;21003;-79
2021/08/24 06:50:19;;;;;;;8.48;3.67;;;;;;;33.78;27.96;101214.03;1783654;80;20845;-79
2021/08/24 06:52:46;;;;;;;9.70;3.95;;;;;;;33.80;27.35;101207.83;1783350;80;21554;-78
2021/08/24 06:55:13;;;;;;;5.22;3.60;;;;;;;33.72;26.38;101208.69;1782436;80;20971;-77
2021/08/24 06:57:41;;;;;;;5.75;3.65;;;;;;;33.72;27.48;101210.05;1775320;80;20983;-79
2021/08/24 07:00:12;;;;;;;10.08;3.37;;;;;;;33.88;26.87;101209.91;1775299;80;20868;-79
2021/08/24 07:02:40;;;;;;;4.03;3.08;;;;;;;34.01;27.03;101203.73;1774879;80;21424;-80
2021/08/24 07:05:07;;;;;;;4.37;3.30;;;;;;;34.22;26.21;101196.94;1775792;80;21491;-79
2021/08/24 07:07:34;;;;;;;4.12;2.83;;;;;;;34.39;26.14;101202.49;1775213;80;20917;-79
2021/08/24 07:10:01;;;;;;;4.28;2.70;;;;;;;34.54;25.07;101195.76;1775516;80;20936;-79
2021/08/24 07:12:28;;;;;;;5.12;2.62;;;;;;;34.69;25.16;101195.31;1775195;80;20901;-79
2021/08/24 07:14:55;;;;;;;4.67;2.15;;;;;;;34.79;25.17;101187.34;1775573;80;20885;-79
2021/08/24 07:17:23;;;;;;;3.95;2.37;;;;;;;34.83;24.60;101196.16;1775398;80;22138;-78
2021/08/24 07:19:50;;;;;;;7.15;2.12;;;;;;;34.99;24.28;101192.40;1775454;80;21350;-78
2021/08/24 07:22:17;;;;;;;4.03;1.75;;;;;;;35.14;23.59;101190.56;1775147;80;20936;-78
2021/08/24 07:24:44;;;;;;;3.62;2.10;;;;;;;35.24;22.61;101181.20;1775507;80;20893;-80
2021/08/24 07:27:11;;;;;;;5.58;2.67;;;;;;;35.35;21.56;101183.59;1775164;80;20938;-78
2021/08/24 07:29:38;;;;;;;4.08;1.92;;;;;;;35.39;23.59;101188.31;1775143;80;21138;-80
2021/08/24 07:32:08;;;;;;;4.75;1.95;;;;;;;35.51;23.15;101188.28;1775252;80;20890;-78
2021/08/24 07:34:37;;;;;;;5.87;1.87;;;;;;;35.61;23.08;101185.72;1775169;80;21414;-79
2021/08/24 07:37:04;;;;;;;6.67;2.75;;;;;;;35.72;22.94;101183.22;1775243;80;20956;-78
2021/08/24 07:39:30;;;;;;;4.95;2.55;;;;;;;35.86;23.15;101190.86;1775354;80;20924;-77
2021/08/24 07:41:58;;;;;;;4.75;2.00;;;;;;;35.97;22.39;101191.83;1775200;80;21118;-77
2021/08/24 07:44:28;;;;;;;3.92;2.12;;;;;;;36.04;23.02;101188.93;1775300;80;20877;-77
2021/08/24 07:46:53;;;;;;;5.55;2.45;;;;;;;36.17;23.09;101192.72;1775207;80;20972;-77
2021/08/24 07:49:20;;;;;;;14.10;12.43;;;;;;;36.31;22.92;101191.33;1775323;80;20971;-78
2021/08/24 07:51:47;;;;;;;10.03;3.02;;;;;;;36.41;21.29;101187.09;1775222;80;20857;-75
2021/08/24 07:54:14;;;;;;;5.25;2.33;;;;;;;36.40;19.67;101185.45;1775077;80;21494;-77
2021/08/24 07:56:42;;;;;;;2.67;2.22;;;;;;;36.38;20.69;101181.59;1779889;80;20884;-77
2021/08/24 07:59:09;;;;;;;2.80;1.80;;;;;;;36.44;21.62;101190.16;1783499;80;20998;-72
2021/08/24 08:01:37;;;;;;;8.75;2.00;;;;;;;36.55;22.30;101187.55;1783406;80;21357;-72
2021/08/24 08:04:04;;;;;;;4.37;2.35;;;;;;;36.71;22.52;101190.28;1783462;80;20884;-72
2021/08/24 08:06:31;;;;;;;2.50;2.30;;;;;;;36.74;21.22;101186.21;1783712;80;21785;-73
2021/08/24 08:08:58;;;;;;;4.95;2.05;;;;;;;36.65;20.47;101183.63;1783419;80;20904;-72
2021/08/24 08:11:25;;;;;;;4.28;1.72;;;;;;;36.65;21.23;101178.98;1783680;80;20920;-68
2021/08/24 08:13:53;;;;;;;2.37;1.95;;;;;;;36.71;20.61;101181.27;1783467;80;20924;-69
2021/08/24 08:16:22;;;;;;;3.80;2.10;;;;;;;36.79;21.19;101181.34;1783520;80;20923;-68
2021/08/24 08:18:50;;;;;;;3.10;1.82;;;;;;;36.89;21.58;101176.02;1783504;80;21466;-74
2021/08/24 08:21:18;;;;;;;2.95;1.60;;;;;;;36.98;21.31;101170.94;1783396;80;21374;-73
2021/08/24 08:23:47;;;;;;;2.58;1.52;;;;;;;37.07;21.24;101167.48;1783462;80;20908;-75
2021/08/24 08:26:14;;;;;;;5.22;2.10;;;;;;;37.16;20.82;101171.99;1783583;80;20960;-73
2021/08/24 08:28:41;;;;;;;6.05;2.00;;;;;;;37.19;20.90;101164.62;1783138;80;20920;-74
2021/08/24 08:31:10;;;;;;;13.85;2.05;;;;;;;37.28;20.77;101171.84;1783881;80;22166;-73
2021/08/24 08:33:36;;;;;;;2.77;1.80;;;;;;;37.39;20.10;101170.04;1783806;80;20818;-73
2021/08/24 08:36:04;;;;;;;3.27;1.62;;;;;;;37.38;19.58;101167.85;1783296;80;21484;-73
2021/08/24 08:38:30;;;;;;;3.52;1.92;;;;;;;37.38;19.65;101165.11;1783463;80;20971;-73
2021/08/24 08:41:06;;;;;;;5.42;2.00;;;;;;;37.39;20.15;101161.28;1783352;80;20904;-72
2021/08/24 08:43:44;;;;;;;3.12;1.22;;;;;;;37.38;20.03;101161.01;1783535;80;21198;-72
2021/08/24 08:46:40;;;;;;;3.10;1.57;;;;;;;37.36;20.35;101154.97;1783319;80;21413;-73
2021/08/24 08:49:22;;;;;;;3.08;1.87;;;;;;;37.23;20.24;101156.74;1768203;80;20849;-75
2021/08/24 08:52:06;;;;;;;2.55;1.65;;;;;;;37.27;20.50;101157.89;1783714;80;20861;-72
2021/08/24 08:54:55;;;;;;;1.85;1.60;;;;;;;37.27;20.54;101146.39;1783385;80;20960;-73
2021/08/24 08:58:07;;;;;;;3.02;1.52;;;;;;;37.24;20.14;101151.55;1783452;80;21088;-75
2021/08/24 09:00:52;;;;;;;2.98;1.37;;;;;;;37.31;20.04;101145.35;1783487;80;20892;-74
2021/08/24 09:03:29;;;;;;;4.03;1.82;;;;;;;37.37;19.87;101150.31;1783346;80;20865;-74
2021/08/24 09:05:59;;;;;;;2.95;1.50;;;;;;;37.38;20.44;101149.25;1782936;80;21380;-73
2021/08/24 09:08:26;;;;;;;5.12;1.65;;;;;;;37.43;19.69;101150.11;1783833;80;20884;-75
2021/08/24 09:10:54;;;;;;;1.90;1.65;;;;;;;37.44;19.88;101150.41;1753048;80;22059;-76
2021/08/24 09:13:50;;;;;;;5.12;1.57;;;;;;;37.46;19.45;101146.84;1783653;80;20971;-75
2021/08/24 09:16:34;;;;;;;1.60;1.42;;;;;;;37.47;18.82;101140.84;1783475;80;21042;-74
2021/08/24 09:19:20;;;;;;;5.22;1.52;;;;;;;37.34;19.30;101133.88;1783516;80;21052;-76
2021/08/24 09:21:50;;;;;;;3.65;1.65;;;;;;;37.35;19.79;101132.78;1783427;80;21388;-76
2021/08/24 09:24:27;;;;;;;3.22;1.45;;;;;;;37.46;19.25;101135.08;1783570;80;21145;-75
2021/08/24 09:27:09;;;;;;;1.82;1.60;;;;;;;37.48;18.01;101130.98;1753616;80;21375;-75
2021/08/24 09:29:44;;;;;;;1.20;0.98;;;;;;;37.42;17.81;101129.31;1783963;80;20911;-76
2021/08/24 09:32:15;;;;;;;1.37;1.15;;;;;;;37.38;18.29;101126.80;1783394;80;21022;-76
2021/08/24 09:34:44;;;;;;;2.50;1.87;;;;;;;37.36;17.02;101125.42;1783983;80;20931;-76
2021/08/24 09:37:22;;;;;;;4.12;1.22;;;;;;;37.32;17.97;101119.62;1783444;80;21183;-76
2021/08/24 09:40:01;;;;;;;3.52;1.20;;;;;;;37.33;18.86;101119.38;1783723;80;20864;-76
2021/08/24 09:42:43;;;;;;;2.80;1.72;;;;;;;37.42;17.05;101121.11;1783680;80;20852;-76
2021/08/24 09:45:29;;;;;;;2.98;1.10;;;;;;;37.43;18.00;101117.27;1783803;80;21531;-78
2021/08/24 09:48:06;;;;;;;2.58;1.30;;;;;;;37.51;18.49;101115.98;1782988;80;21034;-79
2021/08/24 09:50:38;;;;;;;2.47;1.77;;;;;;;37.63;17.86;101111.73;1780490;80;21187;-77
2021/08/24 09:53:08;;;;;;;1.82;1.20;;;;;;;37.68;18.04;101113.95;1783234;80;21036;-77
2021/08/24 09:55:48;;;;;;;3.65;1.47;;;;;;;37.68;17.69;101118.61;1780703;80;20892;-77
2021/08/24 09:58:37;;;;;;;1.10;1.00;;;;;;;37.63;17.44;101113.92;1775280;80;20984;-72
2021/08/24 10:01:18;;;;;;;2.22;1.00;;;;;;;37.60;17.68;101108.97;1773898;80;20920;-76
2021/08/24 10:04:04;;;;;;;3.35;1.42;;;;;;;37.56;18.39;101115.23;1774498;80;22084;-74
2021/08/24 10:06:50;;;;;;;5.58;1.75;;;;;;;37.51;17.47;101102.30;1773171;80;21505;-79
2021/08/24 10:09:26;;;;;;;2.55;1.45;;;;;;;37.43;17.94;101108.23;1731122;82;20901;-77
2021/08/24 10:12:14;;;;;;;1.70;1.35;;;;;;;37.33;18.17;101107.06;1775615;80;21005;-77
2021/08/24 10:14:44;;;;;;;1.85;1.60;;;;;;;37.28;18.25;101102.07;1757127;80;20873;-76
2021/08/24 10:17:22;;;;;;;1.75;1.50;;;;;;;37.02;18.05;101105.91;1775207;80;21478;-75
2021/08/24 10:19:49;;;;;;;2.05;1.22;;;;;;;36.91;18.25;101106.33;1765210;80;20921;-77
2021/08/24 10:22:31;;;;;;;1.72;1.35;;;;;;;36.92;18.14;101107.14;1774815;80;20924;-76
2021/08/24 10:25:06;;;;;;;2.83;1.35;;;;;;;36.82;17.87;101100.18;1774543;80;20987;-74
2021/08/24 10:27:37;;;;;;;2.15;1.67;;;;;;;36.72;17.53;101096.25;1774976;80;20924;-77
2021/08/24 10:30:09;;;;;;;3.55;1.62;;;;;;;36.61;18.17;101099.13;1775182;80;21602;-76
2021/08/24 10:32:47;;;;;;;2.98;1.52;;;;;;;36.61;18.76;101091.75;1775703;80;20928;-74
2021/08/24 10:35:27;;;;;;;4.37;1.60;;;;;;;36.66;18.71;101087.73;1753685;80;21476;-75
2021/08/24 10:37:54;;;;;;;2.90;1.42;;;;;;;36.48;18.62;101093.46;1774189;80;20893;-76
2021/08/24 10:40:30;;;;;;;1.52;1.17;;;;;;;36.38;19.55;101091.98;1775303;80;21496;-76
2021/08/24 10:43:14;;;;;;;2.17;1.70;;;;;;;36.33;19.42;101088.64;1775268;80;21668;-77
2021/08/24 10:46:07;;;;;;;4.92;1.27;;;;;;;36.31;19.31;101091.62;1775286;80;20975;-76
2021/08/24 10:48:34;;;;;;;2.15;1.37;;;;;;;36.26;18.76;101084.73;1775470;80;20948;-76
2021/08/24 10:51:19;;;;;;;2.83;1.52;;;;;;;36.09;19.40;101083.91;1775028;80;20936;-76
2021/08/24 10:54:25;;;;;;;3.17;1.37;;;;;;;36.12;19.92;101079.32;1773670;80;20869;-76
2021/08/24 10:57:14;;;;;;;1.87;1.45;;;;;;;36.17;19.98;101074.47;1743321;80;21485;-77
2021/08/24 10:59:48;;;;;;;8.38;1.77;;;;;;;36.00;19.43;101076.67;1782898;80;20888;-77
2021/08/24 11:02:49;;;;;;;4.83;1.72;;;;;;;35.95;19.31;101069.75;1783757;80;20841;-78
2021/08/24 11:05:41;;;;;;;2.52;1.40;;;;;;;35.94;19.80;101063.20;1783821;80;20924;-77
2021/08/24 11:08:45;;;;;;;6.17;1.60;;;;;;;35.84;19.81;101067.44;1716908;83;20861;-76
2021/08/24 11:11:46;;;;;;;1.98;1.45;;;;;;;35.72;19.86;101065.86;1716819;83;21820;-76
2021/08/24 11:14:40;;;;;;;4.65;2.02;;;;;;;35.72;20.29;101057.13;1716759;83;21012;-75
2021/08/24 11:17:23;;;;;;;4.05;1.80;;;;;;;35.61;20.04;101062.93;1716956;83;20901;-77
2021/08/24 11:20:08;;;;;;;1.90;1.80;;;;;;;35.52;20.30;101058.97;1711457;83;20963;-74
2021/08/24 11:23:15;;;;;;;5.65;1.87;;;;;;;35.39;21.19;101057.92;1699097;83;21472;-78
2021/08/24 11:25:55;;;;;;;3.15;1.72;;;;;;;35.38;21.34;101058.47;1716716;83;21160;-78
2021/08/24 11:28:27;;;;;;;4.55;1.42;;;;;;;35.33;20.40;101048.00;1716736;83;20964;-78
2021/08/24 11:31:17;;;;;;;2.52;1.67;;;;;;;35.22;20.51;101046.47;1717116;83;21473;-78
2021/08/24 11:34:15;;;;;;;2.77;1.95;;;;;;;35.07;20.75;101048.89;1716306;82;20991;-79
2021/08/24 11:36:55;;;;;;;5.87;1.87;;;;;;;34.95;21.43;101045.38;1716797;83;20932;-77
2021/08/24 11:39:35;;;;;;;6.40;2.58;;;;;;;34.83;21.50;101044.91;1716684;83;21313;-75
2021/08/24 11:42:03;;;;;;;3.40;1.92;;;;;;;34.77;21.95;101044.50;1714382;83;20953;-78
2021/08/24 11:44:54;;;;;;;3.72;2.00;;;;;;;34.65;21.67;101042.38;1720431;80;20932;-75
2021/08/24 11:47:31;;;;;;;3.27;1.80;;;;;;;34.39;21.76;101040.98;1783573;80;20987;-78
2021/08/24 11:50:19;;;;;;;2.80;1.98;;;;;;;34.04;21.71;101041.31;1783567;80;20931;-79